^^
Saratoga-Weather Station Historical Data
Daily Summary for March 11, 2020 Units:  Metric    English   Both
Daily Weekly Monthly Yearly Custom
  High: Low: Average:
Temperature: 17.1 °C 4.4 °C 8.3 °C
Dew Point: 15.3 °C 3.7 °C 6.8 °C
Humidity: 95% 80% 90%
Wind Speed: 20.9km/h 0km/h 4.1km/h
Wind Gust: 27.4km/h - -
Wind- - SSW
Pressure: 1015.2 hPa 1001.4 hPa -
Precipitation: 10.9 mm    
Historical Graphs
 
 
Tabular Data for March 11, 2020
Time Temperature Dew Point Pressure Wind Wind Speed Wind Gust Humidity Rainfall Rate (Hourly) solar
00:04 17.1 °C 15.3 °C 1002.0 hPa WNW 3.2 km/h 9.7 km/h 89% 0.0 mm 0 W/m2
00:09 17 °C 15.2 °C 1002.0 hPa Calm   8 km/h 89% 0.0 mm 0 W/m2
00:14 16.9 °C 15.1 °C 1002.0 hPa Calm   1.6 km/h 89% 0.0 mm 0 W/m2
00:19 16.9 °C 15.1 °C 1002.0 hPa ENE 4.7 km/h 6.4 km/h 89% 0.0 mm 0 W/m2
00:24 16.8 °C 15 °C 1002.0 hPa ESE 1.4 km/h 3.2 km/h 89% 0.0 mm 0 W/m2
00:29 16.7 °C 14.7 °C 1002.0 hPa NNW 3.2 km/h 4.8 km/h 88% 0.0 mm 0 W/m2
00:34 16.7 °C 14.7 °C 1002.0 hPa SW 4.7 km/h 14.5 km/h 88% 0.0 mm 0 W/m2
00:39 16.7 °C 14.7 °C 1002.0 hPa NW 1.4 km/h 6.4 km/h 88% 0.0 mm 0 W/m2
00:44 16.6 °C 14.6 °C 1001.7 hPa West 4.7 km/h 14.5 km/h 88% 0.0 mm 0 W/m2
00:49 16.6 °C 14.6 °C 1002.0 hPa North 4.7 km/h 8 km/h 88% 0.0 mm 0 W/m2
00:54 16.5 °C 14.5 °C 1001.7 hPa East 1.4 km/h 9.7 km/h 88% 0.0 mm 0 W/m2
00:59 16.4 °C 14.4 °C 1002.0 hPa West 9.7 km/h 11.3 km/h 88% 0.0 mm 0 W/m2
01:04 16.3 °C 14.3 °C 1002.0 hPa West 4.7 km/h 6.4 km/h 88% 0.0 mm 0 W/m2
01:09 16.3 °C 14.3 °C 1002.0 hPa Calm   1.6 km/h 88% 0.0 mm 0 W/m2
01:14 16.2 °C 14.4 °C 1002.0 hPa Calm   4.8 km/h 89% 0.0 mm 0 W/m2
01:19 16.2 °C 14.4 °C 1001.7 hPa NW 1.4 km/h 12.9 km/h 89% 0.0 mm 0 W/m2
01:24 16.1 °C 14.3 °C 1001.7 hPa NE 3.2 km/h 6.4 km/h 89% 0.0 mm 0 W/m2
01:29 16.1 °C 14.3 °C 1001.7 hPa WNW 3.2 km/h 12.9 km/h 89% 0.0 mm 0 W/m2
01:34 16.1 °C 14.3 °C 1001.7 hPa Calm   4.8 km/h 89% 0.0 mm 0 W/m2
01:39 16 °C 14.2 °C 1001.7 hPa NNE 4.7 km/h 11.3 km/h 89% 0.0 mm 0 W/m2
01:44 15.9 °C 14.1 °C 1001.7 hPa Calm   3.2 km/h 89% 0.0 mm 0 W/m2
01:49 15.9 °C 13.9 °C 1001.7 hPa ESE 3.2 km/h 11.3 km/h 88% 0.0 mm 0 W/m2
01:54 15.9 °C 13.9 °C 1001.7 hPa NNW 9.7 km/h 11.3 km/h 88% 0.0 mm 0 W/m2
01:59 15.9 °C 13.9 °C 1001.7 hPa ESE 6.4 km/h 9.7 km/h 88% 0.0 mm 0 W/m2
02:04 15.9 °C 13.9 °C 1001.7 hPa NE 1.4 km/h 8 km/h 88% 0.0 mm 0 W/m2
02:09 15.8 °C 14 °C 1001.7 hPa WNW 1.4 km/h 8 km/h 89% 0.0 mm 0 W/m2
02:14 15.8 °C 14 °C 1001.4 hPa NW 3.2 km/h 12.9 km/h 89% 0.0 mm 0 W/m2
02:19 15.7 °C 13.9 °C 1001.4 hPa SSE 3.2 km/h 8 km/h 89% 0.2 mm 0 W/m2
02:24 15.6 °C 13.8 °C 1001.7 hPa ENE 3.2 km/h 8 km/h 89% 0.2 mm 0 W/m2
02:29 15.4 °C 13.4 °C 1001.7 hPa SE 4.7 km/h 16.1 km/h 88% 0.5 mm 0 W/m2
02:34 15 °C 13 °C 1001.7 hPa SW 1.4 km/h 6.4 km/h 88% 0.8 mm 0 W/m2
02:39 14.6 °C 12.8 °C 1001.7 hPa NNW 1.4 km/h 16.1 km/h 89% 1.3 mm 0 W/m2
02:44 14.3 °C 12.7 °C 1001.7 hPa West 4.7 km/h 16.1 km/h 90% 1.5 mm 0 W/m2
02:49 14.2 °C 12.6 °C 1001.7 hPa NE 3.2 km/h 8 km/h 90% 2.0 mm 0 W/m2
02:54 13.9 °C 12.5 °C 1001.7 hPa WNW 3.2 km/h 9.7 km/h 91% 2.0 mm 0 W/m2
02:59 13.7 °C 12.3 °C 1002.0 hPa WNW 11.1 km/h 12.9 km/h 91% 2.3 mm 0 W/m2
03:04 13.4 °C 12 °C 1001.7 hPa South 1.4 km/h 6.4 km/h 91% 2.5 mm 0 W/m2
03:09 13.3 °C 11.9 °C 1001.7 hPa East 1.4 km/h 4.8 km/h 91% 2.8 mm 0 W/m2
03:14 13.1 °C 11.8 °C 1001.7 hPa North 4.7 km/h 9.7 km/h 92% 3.0 mm 0 W/m2
03:19 12.9 °C 11.6 °C 1001.7 hPa NW 4.7 km/h 4.8 km/h 92% 3.0 mm 0 W/m2
03:24 12.8 °C 11.5 °C 1001.7 hPa Calm   4.8 km/h 92% 3.3 mm 0 W/m2
03:29 12.8 °C 11.5 °C 1001.7 hPa West 3.2 km/h 14.5 km/h 92% 3.0 mm 0 W/m2
03:34 12.6 °C 11.3 °C 1001.7 hPa NE 3.2 km/h 17.7 km/h 92% 2.8 mm 0 W/m2
03:39 12.4 °C 11.1 °C 1002.0 hPa NNW 4.7 km/h 6.4 km/h 92% 2.3 mm 0 W/m2
03:44 12.2 °C 10.9 °C 1002.0 hPa NNW 6.4 km/h 14.5 km/h 92% 2.0 mm 0 W/m2
03:49 12 °C 10.7 °C 1002.0 hPa NNE 4.7 km/h 11.3 km/h 92% 1.5 mm 0 W/m2
03:54 11.8 °C 10.5 °C 1002.0 hPa SSW 4.7 km/h 11.3 km/h 92% 1.5 mm 0 W/m2
03:59 11.7 °C 10.4 °C 1002.0 hPa NW 6.4 km/h 8 km/h 92% 1.5 mm 0 W/m2
04:04 11.6 °C 10.3 °C 1001.7 hPa ENE 1.4 km/h 3.2 km/h 92% 1.3 mm 0 W/m2
04:09 11.4 °C 10.1 °C 1001.7 hPa WNW 7.9 km/h 12.9 km/h 92% 1.3 mm 0 W/m2
04:14 11.3 °C 10 °C 1001.7 hPa NW 6.4 km/h 8 km/h 92% 1.3 mm 0 W/m2
04:19 11.2 °C 9.9 °C 1001.7 hPa WNW 4.7 km/h 12.9 km/h 92% 1.3 mm 0 W/m2
04:24 11 °C 9.8 °C 1001.7 hPa WNW 13 km/h 12.9 km/h 92% 1.0 mm 0 W/m2
04:29 10.8 °C 9.6 °C 1001.7 hPa West 3.2 km/h 6.4 km/h 92% 1.0 mm 0 W/m2
04:34 10.7 °C 9.5 °C 1001.7 hPa South 6.4 km/h 12.9 km/h 92% 0.8 mm 0 W/m2
04:39 10.5 °C 9.3 °C 1001.7 hPa WNW 11.1 km/h 12.9 km/h 92% 1.0 mm 0 W/m2
04:44 10.3 °C 9.1 °C 1001.7 hPa NE 6.4 km/h 14.5 km/h 92% 1.0 mm 0 W/m2
04:49 10.2 °C 9 °C 1001.7 hPa West 1.4 km/h 6.4 km/h 92% 1.0 mm 0 W/m2
04:55 10.1 °C 8.9 °C 1001.7 hPa NW 3.2 km/h 14.5 km/h 92% 1.0 mm 0 W/m2
05:00 9.9 °C 8.7 °C 1001.7 hPa WNW 4.7 km/h 17.7 km/h 92% 1.0 mm 0 W/m2
05:05 9.8 °C 8.6 °C 1001.7 hPa NNW 1.4 km/h 14.5 km/h 92% 1.0 mm 0 W/m2
05:10 9.7 °C 8.5 °C 1001.7 hPa NW 1.4 km/h 14.5 km/h 92% 0.8 mm 0 W/m2
05:15 9.6 °C 8.4 °C 1001.7 hPa NNW 14.3 km/h 14.5 km/h 92% 0.5 mm 0 W/m2
05:20 9.4 °C 8.2 °C 1001.7 hPa WSW 6.4 km/h 6.4 km/h 92% 0.5 mm 0 W/m2
05:25 9.3 °C 8.1 °C 1001.7 hPa SSW 3.2 km/h 9.7 km/h 92% 0.5 mm 0 W/m2
05:30 9.1 °C 7.9 °C 1001.7 hPa WNW 6.4 km/h 24.1 km/h 92% 0.8 mm 0 W/m2
05:35 8.9 °C 7.7 °C 1001.7 hPa NW 6.4 km/h 19.3 km/h 92% 0.5 mm 0 W/m2
05:40 8.7 °C 7.5 °C 1001.7 hPa WSW 4.7 km/h 24.1 km/h 92% 0.5 mm 0 W/m2
05:45 8.6 °C 7.4 °C 1001.7 hPa North 4.7 km/h 17.7 km/h 92% 0.5 mm 0 W/m2
05:50 8.5 °C 7.3 °C 1002.0 hPa WNW 6.4 km/h 19.3 km/h 92% 0.8 mm 0 W/m2
05:55 8.3 °C 7.1 °C 1001.7 hPa WSW 13 km/h 14.5 km/h 92% 0.8 mm 0 W/m2
06:01 8.2 °C 7 °C 1001.7 hPa NNW 9.7 km/h 19.3 km/h 92% 0.5 mm 0 W/m2
06:06 8.1 °C 6.9 °C 1001.7 hPa WNW 13 km/h 19.3 km/h 92% 0.5 mm 0 W/m2
06:11 7.9 °C 6.7 °C 1001.7 hPa West 16.3 km/h 17.7 km/h 92% 0.5 mm 0 W/m2
06:16 7.8 °C 6.4 °C 1002.0 hPa NNW 9.7 km/h 14.5 km/h 91% 0.5 mm 0 W/m2
06:21 7.7 °C 6.3 °C 1002.0 hPa NNW 3.2 km/h 16.1 km/h 91% 0.5 mm 0 W/m2
06:26 7.6 °C 6.4 °C 1002.0 hPa NW 20.9 km/h 20.9 km/h 92% 0.5 mm 0 W/m2
06:31 7.5 °C 6.1 °C 1002.0 hPa West 11.1 km/h 11.3 km/h 91% 0.2 mm 0 W/m2
06:36 7.4 °C 6 °C 1002.0 hPa ENE 3.2 km/h 8 km/h 91% 0.5 mm 0 W/m2
06:41 7.3 °C 6.1 °C 1002.0 hPa NW 14.3 km/h 14.5 km/h 92% 0.5 mm 5 W/m2
06:46 7.3 °C 6.1 °C 1002.0 hPa SE 3.2 km/h 17.7 km/h 92% 0.5 mm 7 W/m2
06:51 7.1 °C 5.7 °C 1002.4 hPa NW 4.7 km/h 16.1 km/h 91% 0.5 mm 7 W/m2
06:56 7 °C 5.6 °C 1002.0 hPa SW 7.9 km/h 14.5 km/h 91% 0.5 mm 9 W/m2
07:01 6.8 °C 5.6 °C 1002.0 hPa East 3.2 km/h 16.1 km/h 92% 0.5 mm 11 W/m2
07:06 6.7 °C 5.3 °C 1002.0 hPa NNE 13 km/h 16.1 km/h 91% 0.5 mm 7 W/m2
07:11 6.6 °C 5.4 °C 1002.4 hPa West 9.7 km/h 22.5 km/h 92% 0.8 mm 7 W/m2
07:16 6.5 °C 5.3 °C 1002.4 hPa North 13 km/h 16.1 km/h 92% 0.8 mm 7 W/m2
07:21 6.4 °C 5.2 °C 1002.4 hPa North 6.4 km/h 11.3 km/h 92% 0.8 mm 9 W/m2
07:26 6.3 °C 5.1 °C 1002.4 hPa SSW 1.4 km/h 8 km/h 92% 1.0 mm 11 W/m2
07:31 6.3 °C 5.1 °C 1002.4 hPa North 4.7 km/h 22.5 km/h 92% 1.0 mm 12 W/m2
07:36 6.2 °C 5 °C 1002.4 hPa NNE 14.3 km/h 16.1 km/h 92% 0.8 mm 14 W/m2
07:41 6.1 °C 4.9 °C 1002.4 hPa North 4.7 km/h 22.5 km/h 92% 0.8 mm 14 W/m2
07:46 6.1 °C 4.9 °C 1002.4 hPa ENE 9.7 km/h 17.7 km/h 92% 0.5 mm 16 W/m2
07:51 6.1 °C 4.9 °C 1002.4 hPa North 14.3 km/h 19.3 km/h 92% 0.5 mm 14 W/m2
07:56 6.1 °C 4.9 °C 1002.4 hPa NE 9.7 km/h 14.5 km/h 92% 0.5 mm 16 W/m2
08:01 6 °C 4.8 °C 1002.4 hPa NNW 7.9 km/h 20.9 km/h 92% 0.5 mm 18 W/m2
08:06 5.9 °C 4.7 °C 1002.4 hPa West 4.7 km/h 19.3 km/h 92% 0.5 mm 21 W/m2
08:11 5.9 °C 4.7 °C 1002.4 hPa ESE 6.4 km/h 16.1 km/h 92% 0.5 mm 19 W/m2
08:16 5.8 °C 4.6 °C 1002.4 hPa NNE 4.7 km/h 19.3 km/h 92% 0.5 mm 23 W/m2
08:21 5.8 °C 4.6 °C 1002.4 hPa NE 3.2 km/h 6.4 km/h 92% 0.5 mm 30 W/m2
08:26 5.8 °C 4.6 °C 1002.4 hPa NNW 7.9 km/h 17.7 km/h 92% 0.2 mm 32 W/m2
08:31 5.8 °C 4.6 °C 1002.4 hPa West 1.4 km/h 11.3 km/h 92% 0.5 mm 28 W/m2
08:36 5.7 °C 4.5 °C 1002.4 hPa West 9.7 km/h 14.5 km/h 92% 0.5 mm 28 W/m2
08:41 5.7 °C 4.5 °C 1002.4 hPa East 6.4 km/h 11.3 km/h 92% 0.5 mm 30 W/m2
08:46 5.7 °C 4.5 °C 1002.4 hPa NW 14.3 km/h 19.3 km/h 92% 0.5 mm 30 W/m2
08:51 5.7 °C 4.5 °C 1002.7 hPa WSW 1.4 km/h 12.9 km/h 92% 0.5 mm 33 W/m2
08:56 5.6 °C 4.4 °C 1002.7 hPa WNW 13 km/h 20.9 km/h 92% 0.5 mm 40 W/m2
09:01 5.7 °C 4.5 °C 1002.7 hPa East 3.2 km/h 9.7 km/h 92% 0.5 mm 44 W/m2
09:06 5.7 °C 4.5 °C 1002.7 hPa NE 3.2 km/h 9.7 km/h 92% 0.2 mm 35 W/m2
09:11 5.7 °C 4.5 °C 1002.7 hPa NNE 3.2 km/h 11.3 km/h 92% 0.2 mm 35 W/m2
09:16 5.7 °C 4.5 °C 1003.0 hPa NNW 9.7 km/h 17.7 km/h 92% 0.5 mm 35 W/m2
09:21 5.7 °C 4.5 °C 1003.0 hPa North 6.4 km/h 6.4 km/h 92% 0.5 mm 35 W/m2
09:26 5.7 °C 4.5 °C 1003.0 hPa NW 6.4 km/h 19.3 km/h 92% 0.5 mm 35 W/m2
09:31 5.7 °C 4.5 °C 1002.7 hPa NW 11.1 km/h 11.3 km/h 92% 0.2 mm 32 W/m2
09:36 5.7 °C 4.5 °C 1003.0 hPa NNW 4.7 km/h 12.9 km/h 92% 0.2 mm 35 W/m2
09:41 5.7 °C 4.5 °C 1002.7 hPa ESE 4.7 km/h 14.5 km/h 92% 0.2 mm 37 W/m2
09:46 5.7 °C 4.5 °C 1003.0 hPa West 6.4 km/h 19.3 km/h 92% 0.2 mm 37 W/m2
09:51 5.7 °C 4.5 °C 1003.0 hPa NE 4.7 km/h 8 km/h 92% 0.2 mm 39 W/m2
09:56 5.7 °C 4.3 °C 1003.0 hPa NNW 4.7 km/h 12.9 km/h 91% 0.2 mm 37 W/m2
10:01 5.7 °C 4.5 °C 1003.4 hPa ENE 7.9 km/h 9.7 km/h 92% 0.2 mm 37 W/m2
10:06 5.7 °C 4.5 °C 1003.0 hPa NNW 7.9 km/h 27.4 km/h 92% 0.2 mm 39 W/m2
10:11 5.7 °C 4.3 °C 1003.4 hPa SSW 4.7 km/h 12.9 km/h 91% 0.2 mm 44 W/m2
10:16 5.7 °C 4.3 °C 1003.4 hPa WNW 11.1 km/h 27.4 km/h 91% 0.0 mm 44 W/m2
10:22 5.7 °C 4.3 °C 1003.4 hPa North 4.7 km/h 22.5 km/h 91% 0.0 mm 51 W/m2
10:27 5.7 °C 4.5 °C 1003.4 hPa NW 17.7 km/h 25.7 km/h 92% 0.2 mm 54 W/m2
10:32 5.6 °C 4.4 °C 1003.7 hPa NNW 16.3 km/h 16.1 km/h 92% 0.2 mm 56 W/m2
10:37 5.6 °C 4.2 °C 1003.7 hPa East 11.1 km/h 17.7 km/h 91% 0.2 mm 58 W/m2
10:42 5.6 °C 4.2 °C 1003.7 hPa NNE 14.3 km/h 14.5 km/h 91% 0.2 mm 65 W/m2
10:47 5.6 °C 4.2 °C 1004.1 hPa ENE 11.1 km/h 17.7 km/h 91% 0.2 mm 58 W/m2
10:52 5.6 °C 4.2 °C 1004.1 hPa WSW 7.9 km/h 17.7 km/h 91% 0.2 mm 63 W/m2
10:57 5.6 °C 4.2 °C 1004.1 hPa SE 6.4 km/h 19.3 km/h 91% 0.2 mm 62 W/m2
11:02 5.6 °C 4.2 °C 1004.1 hPa North 20.9 km/h 20.9 km/h 91% 0.2 mm 62 W/m2
11:07 5.6 °C 4.2 °C 1004.1 hPa NNW 9.7 km/h 24.1 km/h 91% 0.5 mm 54 W/m2
11:12 5.6 °C 4.2 °C 1004.1 hPa SSW 3.2 km/h 11.3 km/h 91% 0.5 mm 58 W/m2
11:17 5.6 °C 4.2 °C 1004.1 hPa East 3.2 km/h 14.5 km/h 91% 0.5 mm 53 W/m2
11:22 5.6 °C 4.2 °C 1004.1 hPa WNW 14.3 km/h 14.5 km/h 91% 0.5 mm 62 W/m2
11:27 5.5 °C 4.1 °C 1004.4 hPa WSW 3.2 km/h 14.5 km/h 91% 0.5 mm 65 W/m2
11:32 5.4 °C 3.9 °C 1004.4 hPa NNE 7.9 km/h 16.1 km/h 90% 0.5 mm 81 W/m2
11:37 5.4 °C 3.9 °C 1004.4 hPa WNW 14.3 km/h 22.5 km/h 90% 0.5 mm 86 W/m2
11:42 5.5 °C 4 °C 1004.4 hPa West 6.4 km/h 17.7 km/h 90% 0.8 mm 95 W/m2
11:47 5.5 °C 4 °C 1004.4 hPa NW 6.4 km/h 22.5 km/h 90% 0.8 mm 105 W/m2
11:52 5.6 °C 4.2 °C 1004.4 hPa East 4.7 km/h 9.7 km/h 91% 0.8 mm 102 W/m2
11:57 5.6 °C 4.2 °C 1004.4 hPa SE 3.2 km/h 12.9 km/h 91% 1.0 mm 91 W/m2
12:02 5.6 °C 4.2 °C 1004.7 hPa ENE 1.4 km/h 8 km/h 91% 1.0 mm 95 W/m2
12:07 5.5 °C 4.1 °C 1004.4 hPa SSW 6.4 km/h 14.5 km/h 91% 1.0 mm 100 W/m2
12:12 5.5 °C 4.1 °C 1004.7 hPa NE 6.4 km/h 17.7 km/h 91% 1.0 mm 97 W/m2
12:17 5.5 °C 4 °C 1004.7 hPa ENE 7.9 km/h 19.3 km/h 90% 0.8 mm 102 W/m2
12:22 5.4 °C 3.9 °C 1004.7 hPa SSE 3.2 km/h 24.1 km/h 90% 1.0 mm 105 W/m2
12:27 5.4 °C 3.9 °C 1004.7 hPa ENE 6.4 km/h 6.4 km/h 90% 1.0 mm 97 W/m2
12:32 5.4 °C 3.9 °C 1005.1 hPa WSW 14.3 km/h 16.1 km/h 90% 1.0 mm 90 W/m2
12:37 5.4 °C 3.9 °C 1005.1 hPa SE 6.4 km/h 12.9 km/h 90% 1.0 mm 93 W/m2
12:42 5.4 °C 3.9 °C 1005.1 hPa SW 6.4 km/h 11.3 km/h 90% 1.0 mm 107 W/m2
12:47 5.4 °C 3.9 °C 1005.1 hPa ESE 16.3 km/h 22.5 km/h 90% 1.0 mm 118 W/m2
12:52 5.4 °C 3.9 °C 1005.1 hPa ENE 6.4 km/h 8 km/h 90% 1.3 mm 142 W/m2
12:57 5.4 °C 3.9 °C 1005.1 hPa ENE 4.7 km/h 22.5 km/h 90% 1.0 mm 146 W/m2
13:03 5.5 °C 4 °C 1005.1 hPa East 11.1 km/h 12.9 km/h 90% 0.8 mm 141 W/m2
13:08 5.5 °C 4 °C 1005.1 hPa South 3.2 km/h 8 km/h 90% 0.8 mm 125 W/m2
13:13 5.5 °C 4 °C 1005.4 hPa NNW 4.7 km/h 8 km/h 90% 1.0 mm 132 W/m2
13:18 5.6 °C 4.1 °C 1005.4 hPa ENE 3.2 km/h 9.7 km/h 90% 1.0 mm 128 W/m2
13:23 5.5 °C 4 °C 1005.4 hPa NW 4.7 km/h 14.5 km/h 90% 1.0 mm 144 W/m2
13:28 5.6 °C 4.1 °C 1005.4 hPa East 6.4 km/h 14.5 km/h 90% 1.0 mm 135 W/m2
13:33 5.6 °C 4.1 °C 1005.8 hPa SSE 3.2 km/h 17.7 km/h 90% 0.8 mm 128 W/m2
13:38 5.6 °C 4.2 °C 1005.8 hPa ESE 6.4 km/h 6.4 km/h 91% 1.0 mm 142 W/m2
13:43 5.7 °C 4.3 °C 1005.8 hPa NNE 4.7 km/h 8 km/h 91% 0.8 mm 148 W/m2
13:48 5.7 °C 4.2 °C 1005.8 hPa SE 3.2 km/h 8 km/h 90% 1.0 mm 142 W/m2
13:53 5.7 °C 4.2 °C 1005.8 hPa SSE 4.7 km/h 11.3 km/h 90% 0.8 mm 132 W/m2
13:58 5.7 °C 4.2 °C 1005.8 hPa NNW 3.2 km/h 6.4 km/h 90% 0.8 mm 120 W/m2
14:03 5.7 °C 4.2 °C 1006.1 hPa ENE 3.2 km/h 20.9 km/h 90% 1.0 mm 116 W/m2
14:08 5.8 °C 4.1 °C 1006.1 hPa NW 1.4 km/h 9.7 km/h 89% 1.0 mm 113 W/m2
14:13 5.8 °C 4.1 °C 1006.4 hPa WSW 3.2 km/h 22.5 km/h 89% 0.8 mm 105 W/m2
14:18 5.8 °C 4.1 °C 1006.1 hPa NNE 4.7 km/h 6.4 km/h 89% 1.0 mm 114 W/m2
14:23 5.9 °C 4.2 °C 1006.4 hPa ESE 3.2 km/h 22.5 km/h 89% 0.8 mm 118 W/m2
14:28 5.9 °C 4.2 °C 1006.4 hPa ESE 1.4 km/h 8 km/h 89% 0.8 mm 116 W/m2
14:33 5.9 °C 4.2 °C 1006.4 hPa East 3.2 km/h 12.9 km/h 89% 0.8 mm 120 W/m2
14:38 6.1 °C 4.6 °C 1006.8 hPa North 3.2 km/h 6.4 km/h 90% 0.5 mm 121 W/m2
14:43 6.1 °C 4.6 °C 1006.8 hPa ESE 3.2 km/h 9.7 km/h 90% 0.5 mm 125 W/m2
14:48 6.2 °C 4.7 °C 1006.8 hPa NW 3.2 km/h 11.3 km/h 90% 0.5 mm 137 W/m2
14:53 6.3 °C 4.6 °C 1006.8 hPa WNW 3.2 km/h 8 km/h 89% 0.5 mm 149 W/m2
14:58 6.4 °C 4.7 °C 1006.8 hPa SSE 1.4 km/h 11.3 km/h 89% 0.5 mm 151 W/m2
15:03 6.5 °C 5 °C 1007.1 hPa NE 3.2 km/h 9.7 km/h 90% 0.5 mm 141 W/m2
15:08 6.6 °C 4.9 °C 1007.1 hPa ENE 7.9 km/h 8 km/h 89% 0.5 mm 141 W/m2
15:13 6.6 °C 4.9 °C 1007.1 hPa WNW 1.4 km/h 11.3 km/h 89% 0.5 mm 142 W/m2
15:18 6.7 °C 5 °C 1007.5 hPa NE 4.7 km/h 12.9 km/h 89% 0.5 mm 141 W/m2
15:23 6.7 °C 4.9 °C 1007.5 hPa SE 3.2 km/h 8 km/h 88% 0.5 mm 141 W/m2
15:28 6.8 °C 5.1 °C 1007.5 hPa NE 4.7 km/h 6.4 km/h 89% 0.5 mm 146 W/m2
15:33 6.8 °C 5.1 °C 1007.5 hPa East 1.4 km/h 3.2 km/h 89% 0.5 mm 148 W/m2
15:38 7 °C 5.5 °C 1007.5 hPa East 1.4 km/h 1.6 km/h 90% 0.5 mm 156 W/m2
15:43 7.1 °C 5.7 °C 1007.8 hPa Calm   1.6 km/h 91% 0.5 mm 172 W/m2
15:48 7.2 °C 5.8 °C 1007.8 hPa Calm   1.6 km/h 91% 0.5 mm 163 W/m2
15:53 7.3 °C 5.9 °C 1007.8 hPa East 1.4 km/h 3.2 km/h 91% 0.5 mm 171 W/m2
15:58 7.3 °C 5.9 °C 1007.8 hPa East 1.4 km/h 3.2 km/h 91% 0.5 mm 185 W/m2
16:03 7.3 °C 5.9 °C 1007.8 hPa Calm   3.2 km/h 91% 0.2 mm 185 W/m2
16:08 7.4 °C 6 °C 1007.8 hPa Calm   3.2 km/h 91% 0.2 mm 183 W/m2
16:13 7.5 °C 6.1 °C 1007.8 hPa SW 1.4 km/h 1.6 km/h 91% 0.2 mm 174 W/m2
16:18 7.5 °C 6.1 °C 1008.1 hPa SE 1.4 km/h 4.8 km/h 91% 0.0 mm 188 W/m2
16:23 7.5 °C 6.1 °C 1008.1 hPa ENE 1.4 km/h 3.2 km/h 91% 0.0 mm 218 W/m2
16:28 7.4 °C 5.9 °C 1008.1 hPa Calm   3.2 km/h 90% 0.0 mm 227 W/m2
16:33 7.5 °C 6 °C 1008.1 hPa Calm   4.8 km/h 90% 0.0 mm 229 W/m2
16:38 7.5 °C 5.8 °C 1008.5 hPa ENE 4.7 km/h 6.4 km/h 89% 0.0 mm 227 W/m2
16:43 7.6 °C 5.9 °C 1008.5 hPa East 6.4 km/h 6.4 km/h 89% 0.0 mm 225 W/m2
16:49 7.5 °C 5.6 °C 1008.5 hPa ENE 1.4 km/h 4.8 km/h 88% 0.0 mm 199 W/m2
16:54 7.6 °C 5.7 °C 1008.5 hPa ESE 1.4 km/h 3.2 km/h 88% 0.0 mm 199 W/m2
16:59 7.7 °C 6 °C 1008.8 hPa Calm   3.2 km/h 89% 0.0 mm 171 W/m2
17:04 7.8 °C 6.1 °C 1008.8 hPa Calm   3.2 km/h 89% 0.0 mm 141 W/m2
17:09 7.8 °C 5.9 °C 1008.8 hPa East 3.2 km/h 3.2 km/h 88% 0.0 mm 139 W/m2
17:14 7.7 °C 5.7 °C 1008.8 hPa Calm   3.2 km/h 87% 0.0 mm 160 W/m2
17:19 7.7 °C 5.8 °C 1008.8 hPa Calm   3.2 km/h 88% 0.0 mm 188 W/m2
17:24 7.8 °C 5.9 °C 1009.1 hPa Calm     88% 0.0 mm 192 W/m2
17:29 7.8 °C 5.9 °C 1009.1 hPa ESE 3.2 km/h 4.8 km/h 88% 0.0 mm 206 W/m2
17:34 7.9 °C 6 °C 1009.1 hPa Calm   1.6 km/h 88% 0.0 mm 200 W/m2
17:39 7.9 °C 5.9 °C 1009.1 hPa ESE 1.4 km/h 4.8 km/h 87% 0.0 mm 183 W/m2
17:44 7.9 °C 5.5 °C 1009.1 hPa Calm   3.2 km/h 85% 0.0 mm 202 W/m2
17:49 8.1 °C 6.1 °C 1009.5 hPa Calm   1.6 km/h 87% 0.0 mm 234 W/m2
17:54 8.1 °C 5.7 °C 1009.5 hPa East 1.4 km/h 3.2 km/h 85% 0.0 mm 237 W/m2
17:59 8.1 °C 5.6 °C 1009.5 hPa SE 3.2 km/h 3.2 km/h 84% 0.0 mm 260 W/m2
18:04 8.2 °C 5.7 °C 1009.5 hPa Calm   3.2 km/h 84% 0.0 mm 239 W/m2
18:09 8.4 °C 5.9 °C 1009.5 hPa SE 1.4 km/h 1.6 km/h 84% 0.0 mm 221 W/m2
18:14 8.5 °C 6.1 °C 1009.5 hPa ESE 1.4 km/h 3.2 km/h 85% 0.0 mm 213 W/m2
18:19 8.5 °C 5.8 °C 1009.5 hPa Calm   3.2 km/h 83% 0.0 mm 378 W/m2
18:24 8.7 °C 6.1 °C 1009.8 hPa Calm   4.8 km/h 84% 0.0 mm 294 W/m2
18:29 8.9 °C 6.3 °C 1009.8 hPa Calm     84% 0.0 mm 411 W/m2
18:34 9.1 °C 6.5 °C 1009.8 hPa Calm   3.2 km/h 84% 0.0 mm 404 W/m2
18:39 9.3 °C 6.6 °C 1009.8 hPa SE 1.4 km/h 1.6 km/h 83% 0.0 mm 385 W/m2
18:44 9.6 °C 7 °C 1009.8 hPa Calm   3.2 km/h 84% 0.0 mm 236 W/m2
18:49 9.7 °C 6.8 °C 1009.8 hPa ESE 1.4 km/h 6.4 km/h 82% 0.0 mm 417 W/m2
18:54 9.7 °C 6.4 °C 1009.8 hPa East 3.2 km/h 4.8 km/h 80% 0.0 mm 338 W/m2
18:59 9.7 °C 6.6 °C 1010.2 hPa East 1.4 km/h 3.2 km/h 81% 0.0 mm 221 W/m2
19:04 9.7 °C 6.8 °C 1010.2 hPa ESE 1.4 km/h 1.6 km/h 82% 0.0 mm 116 W/m2
19:09 9.7 °C 6.8 °C 1010.2 hPa ESE 1.4 km/h 1.6 km/h 82% 0.0 mm 105 W/m2
19:14 9.6 °C 6.7 °C 1010.2 hPa Calm   1.6 km/h 82% 0.0 mm 123 W/m2
19:19 9.6 °C 7 °C 1010.2 hPa Calm   1.6 km/h 84% 0.0 mm 121 W/m2
19:24 9.6 °C 7.2 °C 1010.2 hPa Calm   1.6 km/h 85% 0.0 mm 95 W/m2
19:29 9.6 °C 7.2 °C 1010.2 hPa Calm   1.6 km/h 85% 0.0 mm 54 W/m2
19:34 9.4 °C 7 °C 1010.5 hPa Calm   1.6 km/h 85% 0.0 mm 42 W/m2
19:39 9.3 °C 7.1 °C 1010.5 hPa Calm     86% 0.0 mm 47 W/m2
19:44 9 °C 6.6 °C 1010.5 hPa Calm   3.2 km/h 85% 0.0 mm 49 W/m2
19:49 8.6 °C 6.4 °C 1010.8 hPa Calm   3.2 km/h 86% 0.0 mm 37 W/m2
19:54 8.3 °C 6.3 °C 1010.8 hPa West 3.2 km/h 4.8 km/h 87% 0.0 mm 70 W/m2
19:59 8.1 °C 6.2 °C 1010.8 hPa West 1.4 km/h 3.2 km/h 88% 0.0 mm 63 W/m2
20:04 8.1 °C 6.2 °C 1010.8 hPa WNW 3.2 km/h 3.2 km/h 88% 0.0 mm 105 W/m2
20:09 8.3 °C 6.6 °C 1011.2 hPa WNW 1.4 km/h 1.6 km/h 89% 0.0 mm 91 W/m2
20:14 8.4 °C 6.7 °C 1011.2 hPa NW 1.4 km/h 3.2 km/h 89% 0.0 mm 74 W/m2
20:19 8.5 °C 6.8 °C 1011.2 hPa Calm     89% 0.0 mm 44 W/m2
20:24 8.6 °C 6.9 °C 1011.2 hPa Calm   3.2 km/h 89% 0.0 mm 39 W/m2
20:29 8.5 °C 6.8 °C 1011.5 hPa Calm   1.6 km/h 89% 0.0 mm 32 W/m2
20:35 8.4 °C 6.7 °C 1011.5 hPa Calm   1.6 km/h 89% 0.0 mm 32 W/m2
20:40 8.2 °C 6.5 °C 1011.5 hPa NW 1.4 km/h 3.2 km/h 89% 0.0 mm 23 W/m2
20:45 8.1 °C 6.6 °C 1011.5 hPa Calm   1.6 km/h 90% 0.0 mm 18 W/m2
20:50 7.9 °C 6.4 °C 1011.9 hPa Calm   3.2 km/h 90% 0.0 mm 14 W/m2
20:55 7.8 °C 6.3 °C 1011.9 hPa Calm   1.6 km/h 90% 0.0 mm 11 W/m2
21:00 7.7 °C 6.3 °C 1012.2 hPa Calm     91% 0.0 mm 9 W/m2
21:05 7.5 °C 6 °C 1012.2 hPa Calm   3.2 km/h 90% 0.0 mm 5 W/m2
21:10 7.3 °C 5.8 °C 1012.2 hPa NW 3.2 km/h 3.2 km/h 90% 0.0 mm 0 W/m2
21:15 7.1 °C 5.7 °C 1012.5 hPa NW 1.4 km/h 3.2 km/h 91% 0.0 mm 0 W/m2
21:20 6.8 °C 5.4 °C 1012.5 hPa NW 1.4 km/h 3.2 km/h 91% 0.0 mm 0 W/m2
21:25 6.7 °C 5.3 °C 1012.9 hPa NW 1.4 km/h 1.6 km/h 91% 0.0 mm 0 W/m2
21:30 6.6 °C 5.4 °C 1012.9 hPa Calm     92% 0.0 mm 0 W/m2
21:35 6.4 °C 5.2 °C 1012.9 hPa NW 1.4 km/h 1.6 km/h 92% 0.0 mm 0 W/m2
21:40 6.3 °C 5.1 °C 1013.2 hPa Calm   1.6 km/h 92% 0.0 mm 0 W/m2
21:45 6.2 °C 5.2 °C 1013.2 hPa Calm     93% 0.0 mm 0 W/m2
21:50 6.2 °C 5.2 °C 1013.2 hPa NW 1.4 km/h 3.2 km/h 93% 0.0 mm 0 W/m2
21:56 6.2 °C 5.2 °C 1013.2 hPa NW 1.4 km/h 1.6 km/h 93% 0.0 mm 0 W/m2
22:01 6.1 °C 5.1 °C 1013.5 hPa WNW 1.4 km/h 1.6 km/h 93% 0.0 mm 0 W/m2
22:06 6.1 °C 5.1 °C 1013.5 hPa WNW 3.2 km/h 3.2 km/h 93% 0.0 mm 0 W/m2
22:11 6 °C 5.1 °C 1013.5 hPa SSW 1.4 km/h 3.2 km/h 94% 0.0 mm 0 W/m2
22:16 5.9 °C 5 °C 1013.5 hPa Calm     94% 0.0 mm 0 W/m2
22:21 5.8 °C 4.8 °C 1013.9 hPa SSW 1.4 km/h 1.6 km/h 93% 0.0 mm 0 W/m2
22:26 5.7 °C 4.8 °C 1013.9 hPa Calm   1.6 km/h 94% 0.0 mm 0 W/m2
22:31 5.6 °C 4.7 °C 1013.9 hPa Calm     94% 0.0 mm 0 W/m2
22:36 5.5 °C 4.6 °C 1013.9 hPa Calm   1.6 km/h 94% 0.0 mm 0 W/m2
22:41 5.4 °C 4.5 °C 1013.9 hPa Calm   3.2 km/h 94% 0.0 mm 0 W/m2
22:46 5.3 °C 4.4 °C 1014.2 hPa Calm   3.2 km/h 94% 0.0 mm 0 W/m2
22:51 5.2 °C 4.3 °C 1014.2 hPa Calm   1.6 km/h 94% 0.0 mm 0 W/m2
22:56 5.2 °C 4.3 °C 1014.2 hPa SSW 1.4 km/h 3.2 km/h 94% 0.0 mm 0 W/m2
23:01 5.1 °C 4.2 °C 1014.2 hPa Calm     94% 0.0 mm 0 W/m2
23:06 5.1 °C 4.4 °C 1014.6 hPa Calm     95% 0.0 mm 0 W/m2
23:11 5.1 °C 4.2 °C 1014.6 hPa WSW 1.4 km/h 1.6 km/h 94% 0.0 mm 0 W/m2
23:16 4.9 °C 4 °C 1014.6 hPa Calm   3.2 km/h 94% 0.0 mm 0 W/m2
23:22 4.9 °C 4.2 °C 1014.6 hPa Calm   1.6 km/h 95% 0.0 mm 0 W/m2
23:27 4.8 °C 4.1 °C 1014.6 hPa Calm   3.2 km/h 95% 0.0 mm 0 W/m2
23:32 4.7 °C 3.8 °C 1014.9 hPa Calm     94% 0.0 mm 0 W/m2
23:37 4.7 °C 4 °C 1014.9 hPa Calm   1.6 km/h 95% 0.0 mm 0 W/m2
23:42 4.7 °C 4 °C 1014.9 hPa Calm     95% 0.0 mm 0 W/m2
23:47 4.6 °C 3.9 °C 1015.2 hPa Calm     95% 0.0 mm 0 W/m2
23:52 4.5 °C 3.8 °C 1015.2 hPa Calm     95% 0.0 mm 0 W/m2
23:57 4.4 °C 3.7 °C 1015.2 hPa Calm     95% 0.0 mm 0 W/m2
Juneau County Weather
Compliments of Weather Underground - 2 mb